sensor_id;sensor_type;location;lat;lon;timestamp;temperature;humidity
45323;DHT22;31382;50.200;8.674;2022-08-20T00:04:20;22.20;99.90
45323;DHT22;31382;50.200;8.674;2022-08-20T00:09:22;22.20;99.90
45323;DHT22;31382;50.200;8.674;2022-08-20T00:14:23;22.10;99.90
45323;DHT22;31382;50.200;8.674;2022-08-20T00:19:25;22.10;99.90
45323;DHT22;31382;50.200;8.674;2022-08-20T00:24:27;22.10;99.90
45323;DHT22;31382;50.200;8.674;2022-08-20T00:29:29;22.10;99.90
45323;DHT22;31382;50.200;8.674;2022-08-20T00:34:30;22.10;99.90
45323;DHT22;31382;50.200;8.674;2022-08-20T00:39:32;22.20;99.90
45323;DHT22;31382;50.200;8.674;2022-08-20T00:44:34;22.10;99.90
45323;DHT22;31382;50.200;8.674;2022-08-20T00:49:36;22.10;99.90
45323;DHT22;31382;50.200;8.674;2022-08-20T00:54:49;22.10;99.90
45323;DHT22;31382;50.200;8.674;2022-08-20T00:59:52;22.10;99.90
45323;DHT22;31382;50.200;8.674;2022-08-20T01:04:54;22.00;99.90
45323;DHT22;31382;50.200;8.674;2022-08-20T01:09:57;22.00;99.90
45323;DHT22;31382;50.200;8.674;2022-08-20T01:15:03;22.00;99.90
45323;DHT22;31382;50.200;8.674;2022-08-20T01:20:18;22.00;99.90
45323;DHT22;31382;50.200;8.674;2022-08-20T01:25:45;21.90;99.90
45323;DHT22;31382;50.200;8.674;2022-08-20T01:30:47;22.00;99.90
45323;DHT22;31382;50.200;8.674;2022-08-20T01:35:50;21.90;99.90
45323;DHT22;31382;50.200;8.674;2022-08-20T01:46:16;21.90;99.90
45323;DHT22;31382;50.200;8.674;2022-08-20T01:51:24;21.90;99.90
45323;DHT22;31382;50.200;8.674;2022-08-20T01:56:29;21.90;99.90
45323;DHT22;31382;50.200;8.674;2022-08-20T02:01:39;21.90;99.90
45323;DHT22;31382;50.200;8.674;2022-08-20T02:06:51;21.90;99.90
45323;DHT22;31382;50.200;8.674;2022-08-20T02:11:58;21.90;99.90
45323;DHT22;31382;50.200;8.674;2022-08-20T02:17:01;21.90;99.90
45323;DHT22;31382;50.200;8.674;2022-08-20T02:22:10;21.80;99.90
45323;DHT22;31382;50.200;8.674;2022-08-20T02:27:14;21.80;99.90
45323;DHT22;31382;50.200;8.674;2022-08-20T02:32:16;21.90;99.90
45323;DHT22;31382;50.200;8.674;2022-08-20T02:37:36;21.90;99.90
45323;DHT22;31382;50.200;8.674;2022-08-20T02:42:38;21.80;99.90
45323;DHT22;31382;50.200;8.674;2022-08-20T02:47:44;21.80;99.90
45323;DHT22;31382;50.200;8.674;2022-08-20T02:52:46;21.80;99.90
45323;DHT22;31382;50.200;8.674;2022-08-20T02:57:56;21.70;99.90
45323;DHT22;31382;50.200;8.674;2022-08-20T03:03:00;21.80;99.90
45323;DHT22;31382;50.200;8.674;2022-08-20T03:08:02;21.80;99.90
45323;DHT22;31382;50.200;8.674;2022-08-20T03:13:05;21.90;99.90
45323;DHT22;31382;50.200;8.674;2022-08-20T03:18:07;21.90;99.90
45323;DHT22;31382;50.200;8.674;2022-08-20T03:23:10;21.80;99.90
45323;DHT22;31382;50.200;8.674;2022-08-20T03:28:13;21.90;99.90
45323;DHT22;31382;50.200;8.674;2022-08-20T03:33:16;21.90;99.90
45323;DHT22;31382;50.200;8.674;2022-08-20T03:38:19;21.90;99.90
45323;DHT22;31382;50.200;8.674;2022-08-20T03:43:33;21.90;99.90
45323;DHT22;31382;50.200;8.674;2022-08-20T03:48:36;21.90;99.90
45323;DHT22;31382;50.200;8.674;2022-08-20T03:53:38;21.80;99.90
45323;DHT22;31382;50.200;8.674;2022-08-20T03:58:40;21.80;99.90
45323;DHT22;31382;50.200;8.674;2022-08-20T04:03:42;21.80;99.90
45323;DHT22;31382;50.200;8.674;2022-08-20T04:08:45;21.80;99.90
45323;DHT22;31382;50.200;8.674;2022-08-20T04:13:46;21.70;99.90
45323;DHT22;31382;50.200;8.674;2022-08-20T04:18:50;21.70;99.90
45323;DHT22;31382;50.200;8.674;2022-08-20T04:24:04;21.70;99.90
45323;DHT22;31382;50.200;8.674;2022-08-20T04:29:06;21.60;99.90
45323;DHT22;31382;50.200;8.674;2022-08-20T04:34:07;21.60;99.90
45323;DHT22;31382;50.200;8.674;2022-08-20T04:39:09;21.50;99.90
45323;DHT22;31382;50.200;8.674;2022-08-20T04:44:11;21.50;99.90
45323;DHT22;31382;50.200;8.674;2022-08-20T04:49:14;21.50;99.90
45323;DHT22;31382;50.200;8.674;2022-08-20T04:54:15;21.50;99.90
45323;DHT22;31382;50.200;8.674;2022-08-20T04:59:17;21.40;99.90
45323;DHT22;31382;50.200;8.674;2022-08-20T05:04:18;21.40;99.90
45323;DHT22;31382;50.200;8.674;2022-08-20T05:09:20;21.40;99.90
45323;DHT22;31382;50.200;8.674;2022-08-20T05:14:22;21.40;99.90
45323;DHT22;31382;50.200;8.674;2022-08-20T05:19:23;21.40;99.90
45323;DHT22;31382;50.200;8.674;2022-08-20T05:24:25;21.10;99.90
45323;DHT22;31382;50.200;8.674;2022-08-20T05:29:27;21.00;99.90
45323;DHT22;31382;50.200;8.674;2022-08-20T05:34:29;20.90;99.90
45323;DHT22;31382;50.200;8.674;2022-08-20T05:39:31;20.80;99.90
45323;DHT22;31382;50.200;8.674;2022-08-20T05:44:37;20.90;99.90
45323;DHT22;31382;50.200;8.674;2022-08-20T05:49:39;21.00;99.90
45323;DHT22;31382;50.200;8.674;2022-08-20T05:54:43;21.10;99.90
45323;DHT22;31382;50.200;8.674;2022-08-20T05:59:45;21.20;99.90
45323;DHT22;31382;50.200;8.674;2022-08-20T06:04:47;21.30;99.90
45323;DHT22;31382;50.200;8.674;2022-08-20T06:09:56;21.40;99.90
45323;DHT22;31382;50.200;8.674;2022-08-20T06:14:58;21.40;99.90
45323;DHT22;31382;50.200;8.674;2022-08-20T06:20:02;21.40;99.90
45323;DHT22;31382;50.200;8.674;2022-08-20T06:25:06;21.40;99.90
45323;DHT22;31382;50.200;8.674;2022-08-20T06:30:12;21.50;99.90
45323;DHT22;31382;50.200;8.674;2022-08-20T06:35:14;21.50;99.90
45323;DHT22;31382;50.200;8.674;2022-08-20T06:40:21;21.70;99.90
45323;DHT22;31382;50.200;8.674;2022-08-20T06:45:27;21.70;99.90
45323;DHT22;31382;50.200;8.674;2022-08-20T06:50:33;21.80;99.90
45323;DHT22;31382;50.200;8.674;2022-08-20T06:55:50;22.00;99.90
45323;DHT22;31382;50.200;8.674;2022-08-20T07:00:53;22.30;99.90
45323;DHT22;31382;50.200;8.674;2022-08-20T07:05:55;22.50;99.90
45323;DHT22;31382;50.200;8.674;2022-08-20T07:10:56;22.40;99.90
45323;DHT22;31382;50.200;8.674;2022-08-20T07:15:58;22.40;99.90
45323;DHT22;31382;50.200;8.674;2022-08-20T07:21:00;22.30;99.90
45323;DHT22;31382;50.200;8.674;2022-08-20T07:26:01;22.50;99.90
45323;DHT22;31382;50.200;8.674;2022-08-20T07:31:03;22.70;99.90
45323;DHT22;31382;50.200;8.674;2022-08-20T07:36:24;22.70;99.90
45323;DHT22;31382;50.200;8.674;2022-08-20T07:41:26;22.80;99.90
45323;DHT22;31382;50.200;8.674;2022-08-20T07:46:28;22.90;99.90
45323;DHT22;31382;50.200;8.674;2022-08-20T07:51:32;23.10;99.90
45323;DHT22;31382;50.200;8.674;2022-08-20T07:56:34;23.00;99.90
45323;DHT22;31382;50.200;8.674;2022-08-20T08:01:37;23.10;99.90
45323;DHT22;31382;50.200;8.674;2022-08-20T08:06:38;23.20;99.90
45323;DHT22;31382;50.200;8.674;2022-08-20T08:11:45;23.40;99.90
45323;DHT22;31382;50.200;8.674;2022-08-20T08:16:53;23.30;99.90
45323;DHT22;31382;50.200;8.674;2022-08-20T08:21:55;23.30;99.90
45323;DHT22;31382;50.200;8.674;2022-08-20T08:26:59;23.50;99.90
45323;DHT22;31382;50.200;8.674;2022-08-20T08:32:02;23.80;99.90
45323;DHT22;31382;50.200;8.674;2022-08-20T08:37:04;24.00;99.90
45323;DHT22;31382;50.200;8.674;2022-08-20T08:42:53;24.20;99.90
45323;DHT22;31382;50.200;8.674;2022-08-20T08:47:47;24.40;99.90
45323;DHT22;31382;50.200;8.674;2022-08-20T08:52:51;24.50;99.90
45323;DHT22;31382;50.200;8.674;2022-08-20T08:58:00;24.70;99.90
45323;DHT22;31382;50.200;8.674;2022-08-20T09:03:24;24.60;99.90
45323;DHT22;31382;50.200;8.674;2022-08-20T09:08:42;24.70;99.90
45323;DHT22;31382;50.200;8.674;2022-08-20T09:13:44;24.90;99.90
45323;DHT22;31382;50.200;8.674;2022-08-20T09:18:46;25.00;99.90
45323;DHT22;31382;50.200;8.674;2022-08-20T09:23:47;25.10;99.90
45323;DHT22;31382;50.200;8.674;2022-08-20T09:28:49;25.00;99.90
45323;DHT22;31382;50.200;8.674;2022-08-20T09:33:52;25.00;99.90
45323;DHT22;31382;50.200;8.674;2022-08-20T09:38:54;25.40;99.90
45323;DHT22;31382;50.200;8.674;2022-08-20T09:43:56;25.60;99.90
45323;DHT22;31382;50.200;8.674;2022-08-20T09:48:58;25.50;99.90
45323;DHT22;31382;50.200;8.674;2022-08-20T09:54:00;25.20;99.90
45323;DHT22;31382;50.200;8.674;2022-08-20T09:59:03;25.00;99.90
45323;DHT22;31382;50.200;8.674;2022-08-20T10:04:05;25.00;99.90
45323;DHT22;31382;50.200;8.674;2022-08-20T10:09:07;24.90;99.90
45323;DHT22;31382;50.200;8.674;2022-08-20T10:14:09;25.10;99.90
45323;DHT22;31382;50.200;8.674;2022-08-20T10:19:11;25.20;99.90
45323;DHT22;31382;50.200;8.674;2022-08-20T10:24:12;25.50;99.90
45323;DHT22;31382;50.200;8.674;2022-08-20T10:29:15;25.80;99.90
45323;DHT22;31382;50.200;8.674;2022-08-20T10:34:17;25.90;99.90
45323;DHT22;31382;50.200;8.674;2022-08-20T10:39:18;26.40;99.90
45323;DHT22;31382;50.200;8.674;2022-08-20T10:44:20;26.70;99.90
45323;DHT22;31382;50.200;8.674;2022-08-20T10:49:21;26.90;99.90
45323;DHT22;31382;50.200;8.674;2022-08-20T10:54:23;27.30;99.90
45323;DHT22;31382;50.200;8.674;2022-08-20T10:59:25;27.30;99.90
45323;DHT22;31382;50.200;8.674;2022-08-20T11:04:26;27.40;99.90
45323;DHT22;31382;50.200;8.674;2022-08-20T11:09:28;27.30;99.90
45323;DHT22;31382;50.200;8.674;2022-08-20T11:14:30;27.30;99.90
45323;DHT22;31382;50.200;8.674;2022-08-20T11:19:31;27.20;99.90
45323;DHT22;31382;50.200;8.674;2022-08-20T11:24:33;27.20;99.90
45323;DHT22;31382;50.200;8.674;2022-08-20T11:29:36;27.40;99.90
45323;DHT22;31382;50.200;8.674;2022-08-20T11:34:38;27.80;99.90
45323;DHT22;31382;50.200;8.674;2022-08-20T11:39:40;27.90;99.90
45323;DHT22;31382;50.200;8.674;2022-08-20T11:44:42;28.00;99.90
45323;DHT22;31382;50.200;8.674;2022-08-20T11:49:44;28.20;99.90
45323;DHT22;31382;50.200;8.674;2022-08-20T11:54:46;28.20;99.90
45323;DHT22;31382;50.200;8.674;2022-08-20T11:59:54;28.50;99.90
45323;DHT22;31382;50.200;8.674;2022-08-20T12:04:56;28.70;99.90
45323;DHT22;31382;50.200;8.674;2022-08-20T12:09:58;28.70;99.90
45323;DHT22;31382;50.200;8.674;2022-08-20T12:14:59;28.40;98.50
45323;DHT22;31382;50.200;8.674;2022-08-20T12:20:08;28.40;98.00
45323;DHT22;31382;50.200;8.674;2022-08-20T12:25:10;28.60;97.80
45323;DHT22;31382;50.200;8.674;2022-08-20T12:30:16;28.70;97.20
45323;DHT22;31382;50.200;8.674;2022-08-20T12:35:17;28.70;97.30
45323;DHT22;31382;50.200;8.674;2022-08-20T12:40:27;28.70;97.40
45323;DHT22;31382;50.200;8.674;2022-08-20T12:45:33;28.70;97.20
45323;DHT22;31382;50.200;8.674;2022-08-20T12:50:37;28.60;96.90
45323;DHT22;31382;50.200;8.674;2022-08-20T12:55:39;28.80;97.30
45323;DHT22;31382;50.200;8.674;2022-08-20T13:00:43;28.80;96.30
45323;DHT22;31382;50.200;8.674;2022-08-20T13:05:51;29.40;95.70
45323;DHT22;31382;50.200;8.674;2022-08-20T13:10:52;29.90;93.60
45323;DHT22;31382;50.200;8.674;2022-08-20T13:15:54;30.40;92.70
45323;DHT22;31382;50.200;8.674;2022-08-20T13:20:55;30.90;92.00
45323;DHT22;31382;50.200;8.674;2022-08-20T13:25:57;31.30;91.20
45323;DHT22;31382;50.200;8.674;2022-08-20T13:30:59;32.00;88.20
45323;DHT22;31382;50.200;8.674;2022-08-20T13:36:02;32.10;84.10
45323;DHT22;31382;50.200;8.674;2022-08-20T13:41:04;31.80;81.80
45323;DHT22;31382;50.200;8.674;2022-08-20T13:46:06;32.70;80.20
45323;DHT22;31382;50.200;8.674;2022-08-20T13:51:08;33.60;77.20
45323;DHT22;31382;50.200;8.674;2022-08-20T13:56:09;34.20;72.10
45323;DHT22;31382;50.200;8.674;2022-08-20T14:01:11;34.10;69.20
45323;DHT22;31382;50.200;8.674;2022-08-20T14:06:13;33.80;66.10
45323;DHT22;31382;50.200;8.674;2022-08-20T14:11:14;34.40;66.50
45323;DHT22;31382;50.200;8.674;2022-08-20T14:16:18;35.00;62.50
45323;DHT22;31382;50.200;8.674;2022-08-20T14:21:27;35.00;60.90
45323;DHT22;31382;50.200;8.674;2022-08-20T14:26:29;35.70;63.60
45323;DHT22;31382;50.200;8.674;2022-08-20T14:31:31;34.40;61.70
45323;DHT22;31382;50.200;8.674;2022-08-20T14:36:32;33.40;63.70
45323;DHT22;31382;50.200;8.674;2022-08-20T14:41:34;32.80;64.90
45323;DHT22;31382;50.200;8.674;2022-08-20T14:46:36;33.20;63.90
45323;DHT22;31382;50.200;8.674;2022-08-20T14:51:37;33.40;63.70
45323;DHT22;31382;50.200;8.674;2022-08-20T14:56:39;32.20;65.20
45323;DHT22;31382;50.200;8.674;2022-08-20T15:01:40;32.30;65.80
45323;DHT22;31382;50.200;8.674;2022-08-20T15:06:42;32.20;65.60
45323;DHT22;31382;50.200;8.674;2022-08-20T15:11:45;32.30;65.60
45323;DHT22;31382;50.200;8.674;2022-08-20T15:16:47;32.20;65.70
45323;DHT22;31382;50.200;8.674;2022-08-20T15:21:49;32.10;65.00
45323;DHT22;31382;50.200;8.674;2022-08-20T15:26:51;31.80;64.80
45323;DHT22;31382;50.200;8.674;2022-08-20T15:31:52;31.40;64.80
45323;DHT22;31382;50.200;8.674;2022-08-20T15:36:56;31.60;65.00
45323;DHT22;31382;50.200;8.674;2022-08-20T15:41:57;31.50;65.00
45323;DHT22;31382;50.200;8.674;2022-08-20T15:52:19;30.90;66.40
45323;DHT22;31382;50.200;8.674;2022-08-20T16:08:48;29.90;66.20
45323;DHT22;31382;50.200;8.674;2022-08-20T16:19:24;29.40;66.00
45323;DHT22;31382;50.200;8.674;2022-08-20T16:24:27;29.10;65.80
45323;DHT22;31382;50.200;8.674;2022-08-20T16:29:59;28.80;65.90
45323;DHT22;31382;50.200;8.674;2022-08-20T16:35:19;28.70;66.30
45323;DHT22;31382;50.200;8.674;2022-08-20T16:45:49;28.50;66.80
45323;DHT22;31382;50.200;8.674;2022-08-20T16:51:05;28.20;66.80
45323;DHT22;31382;50.200;8.674;2022-08-20T16:56:09;28.00;67.30
45323;DHT22;31382;50.200;8.674;2022-08-20T17:01:12;27.80;67.80
45323;DHT22;31382;50.200;8.674;2022-08-20T17:06:31;27.90;68.30
45323;DHT22;31382;50.200;8.674;2022-08-20T17:11:35;27.70;68.30
45323;DHT22;31382;50.200;8.674;2022-08-20T17:21:42;27.40;67.80
45323;DHT22;31382;50.200;8.674;2022-08-20T17:26:47;27.40;67.10
45323;DHT22;31382;50.200;8.674;2022-08-20T17:31:52;27.30;67.00
45323;DHT22;31382;50.200;8.674;2022-08-20T17:36:59;27.10;66.30
45323;DHT22;31382;50.200;8.674;2022-08-20T17:42:24;26.80;66.50
45323;DHT22;31382;50.200;8.674;2022-08-20T17:47:31;26.60;67.10
45323;DHT22;31382;50.200;8.674;2022-08-20T17:52:55;26.10;67.90
45323;DHT22;31382;50.200;8.674;2022-08-20T17:57:58;25.90;68.90
45323;DHT22;31382;50.200;8.674;2022-08-20T18:08:33;25.40;72.20
45323;DHT22;31382;50.200;8.674;2022-08-20T18:13:44;25.30;73.90
45323;DHT22;31382;50.200;8.674;2022-08-20T18:19:02;25.00;75.30
45323;DHT22;31382;50.200;8.674;2022-08-20T18:24:17;24.90;76.40
45323;DHT22;31382;50.200;8.674;2022-08-20T18:29:22;24.70;77.80
45323;DHT22;31382;50.200;8.674;2022-08-20T18:39:39;24.30;80.10
45323;DHT22;31382;50.200;8.674;2022-08-20T18:44:46;24.10;82.60
45323;DHT22;31382;50.200;8.674;2022-08-20T18:55:30;23.80;84.00
45323;DHT22;31382;50.200;8.674;2022-08-20T19:00:43;23.70;84.80
45323;DHT22;31382;50.200;8.674;2022-08-20T19:10:51;23.40;86.60
45323;DHT22;31382;50.200;8.674;2022-08-20T19:16:00;23.20;87.30
45323;DHT22;31382;50.200;8.674;2022-08-20T19:21:05;23.10;88.00
45323;DHT22;31382;50.200;8.674;2022-08-20T19:26:20;23.00;88.80
45323;DHT22;31382;50.200;8.674;2022-08-20T19:31:31;22.90;89.60
45323;DHT22;31382;50.200;8.674;2022-08-20T19:36:34;22.80;90.10
45323;DHT22;31382;50.200;8.674;2022-08-20T19:41:58;22.70;90.50
45323;DHT22;31382;50.200;8.674;2022-08-20T19:47:01;22.60;90.90
45323;DHT22;31382;50.200;8.674;2022-08-20T19:52:20;22.40;91.30
45323;DHT22;31382;50.200;8.674;2022-08-20T19:57:24;22.30;91.60
45323;DHT22;31382;50.200;8.674;2022-08-20T20:02:29;22.30;92.00
45323;DHT22;31382;50.200;8.674;2022-08-20T20:07:55;22.20;92.30
45323;DHT22;31382;50.200;8.674;2022-08-20T20:13:04;22.10;92.60
45323;DHT22;31382;50.200;8.674;2022-08-20T20:18:07;22.00;92.90
45323;DHT22;31382;50.200;8.674;2022-08-20T20:23:20;21.90;93.10
45323;DHT22;31382;50.200;8.674;2022-08-20T20:28:41;21.80;93.50
45323;DHT22;31382;50.200;8.674;2022-08-20T20:33:43;21.70;93.70
45323;DHT22;31382;50.200;8.674;2022-08-20T20:38:57;21.70;93.90
45323;DHT22;31382;50.200;8.674;2022-08-20T20:44:16;21.60;94.10
45323;DHT22;31382;50.200;8.674;2022-08-20T20:49:25;21.60;94.40
45323;DHT22;31382;50.200;8.674;2022-08-20T20:54:42;21.50;94.60
45323;DHT22;31382;50.200;8.674;2022-08-20T20:59:46;21.40;94.80
45323;DHT22;31382;50.200;8.674;2022-08-20T21:04:51;21.30;94.90
45323;DHT22;31382;50.200;8.674;2022-08-20T21:09:55;21.30;95.00
45323;DHT22;31382;50.200;8.674;2022-08-20T21:14:56;21.30;95.20
45323;DHT22;31382;50.200;8.674;2022-08-20T21:19:58;21.20;95.30
45323;DHT22;31382;50.200;8.674;2022-08-20T21:25:03;21.20;95.60
45323;DHT22;31382;50.200;8.674;2022-08-20T21:30:05;21.20;95.50
45323;DHT22;31382;50.200;8.674;2022-08-20T21:35:08;21.10;95.70
45323;DHT22;31382;50.200;8.674;2022-08-20T21:40:11;21.10;96.00
45323;DHT22;31382;50.200;8.674;2022-08-20T21:45:15;21.00;96.00
45323;DHT22;31382;50.200;8.674;2022-08-20T21:50:20;20.90;96.00
45323;DHT22;31382;50.200;8.674;2022-08-20T21:55:21;20.90;96.00
45323;DHT22;31382;50.200;8.674;2022-08-20T22:00:45;20.90;96.30
45323;DHT22;31382;50.200;8.674;2022-08-20T22:05:47;20.80;96.60
45323;DHT22;31382;50.200;8.674;2022-08-20T22:10:50;20.70;96.90
45323;DHT22;31382;50.200;8.674;2022-08-20T22:15:54;20.60;97.30
45323;DHT22;31382;50.200;8.674;2022-08-20T22:20:56;20.60;97.40
45323;DHT22;31382;50.200;8.674;2022-08-20T22:25:57;20.50;97.70
45323;DHT22;31382;50.200;8.674;2022-08-20T22:31:00;20.50;98.10
45323;DHT22;31382;50.200;8.674;2022-08-20T22:36:03;20.40;98.70
45323;DHT22;31382;50.200;8.674;2022-08-20T22:41:06;20.40;99.00
45323;DHT22;31382;50.200;8.674;2022-08-20T22:46:11;20.30;99.40
45323;DHT22;31382;50.200;8.674;2022-08-20T22:51:21;20.20;99.50
45323;DHT22;31382;50.200;8.674;2022-08-20T22:56:23;20.20;99.80
45323;DHT22;31382;50.200;8.674;2022-08-20T23:01:25;20.10;99.90
45323;DHT22;31382;50.200;8.674;2022-08-20T23:06:28;20.10;99.90
45323;DHT22;31382;50.200;8.674;2022-08-20T23:11:30;20.10;99.90
45323;DHT22;31382;50.200;8.674;2022-08-20T23:16:32;20.10;99.90
45323;DHT22;31382;50.200;8.674;2022-08-20T23:21:34;20.00;99.90
45323;DHT22;31382;50.200;8.674;2022-08-20T23:26:35;19.90;99.90
45323;DHT22;31382;50.200;8.674;2022-08-20T23:31:42;19.90;99.90
45323;DHT22;31382;50.200;8.674;2022-08-20T23:36:44;19.80;99.90
45323;DHT22;31382;50.200;8.674;2022-08-20T23:41:45;19.70;99.90
45323;DHT22;31382;50.200;8.674;2022-08-20T23:46:48;19.60;99.90
45323;DHT22;31382;50.200;8.674;2022-08-20T23:51:53;19.60;99.90
45323;DHT22;31382;50.200;8.674;2022-08-20T23:56:55;19.50;99.90
